Time;durP1;ratioP1;P1;durP2;ratioP2;P2;SDS_P1;SDS_P2;PMS_P1;PMS_P2;Temp;Humidity;BMP_temperature;BMP_pressure;BME280_temperature;BME280_humidity;BME280_pressure;Samples;Min_cycle;Max_cycle;Signal;HPM_P1;HPM_P2
2022/09/19 00:00:14;;;;;;;1.02;0.50;;;18.70;54.30;;;;;;4091193;28;20475;-46
2022/09/19 00:02:36;;;;;;;1.90;1.08;;;18.80;54.40;;;;;;4101224;28;20050;-44
2022/09/19 00:04:59;;;;;;;2.58;0.90;;;18.80;54.40;;;;;;4092828;28;20039;-45
2022/09/19 00:07:22;;;;;;;2.10;0.60;;;18.70;54.50;;;;;;4092393;28;20054;-45
2022/09/19 00:09:45;;;;;;;1.17;0.50;;;18.80;54.60;;;;;;4089775;28;20035;-44
2022/09/19 00:12:08;;;;;;;1.02;0.50;;;18.80;54.60;;;;;;4081700;28;20043;-44
2022/09/19 00:14:34;;;;;;;6.80;1.00;;;18.70;54.70;;;;;;4088733;28;20054;-47
2022/09/19 00:17:01;;;;;;;14.00;1.25;;;18.80;54.90;;;;;;4094298;28;20133;-46
2022/09/19 00:19:24;;;;;;;2.50;0.73;;;18.80;54.90;;;;;;4093211;28;20030;-46
2022/09/19 00:21:48;;;;;;;1.05;0.60;;;18.90;54.60;;;;;;4089765;28;20708;-50
2022/09/19 00:26:55;;;;;;;2.33;0.60;;;18.90;54.50;;;;;;4090760;28;20495;-49
2022/09/19 00:29:18;;;;;;;1.75;0.40;;;18.90;54.40;;;;;;4087504;28;20122;-47
2022/09/19 00:31:42;;;;;;;0.80;0.55;;;18.90;54.40;;;;;;4085515;28;20055;-46
2022/09/19 00:34:06;;;;;;;1.85;0.50;;;18.90;54.30;;;;;;4091037;28;20639;-46
2022/09/19 00:36:30;;;;;;;0.50;0.50;;;18.90;54.30;;;;;;4086294;28;20395;-49
2022/09/19 00:38:52;;;;;;;4.38;0.85;;;18.90;54.30;;;;;;4089294;28;20614;-49
2022/09/19 00:41:24;;;;;;;1.27;0.30;;;18.90;54.30;;;;;;4085338;28;20345;-47
2022/09/19 00:43:53;;;;;;;3.92;0.85;;;19.00;54.30;;;;;;4093008;28;20162;-46
2022/09/19 00:46:17;;;;;;;1.92;0.70;;;19.00;54.50;;;;;;4091539;28;20042;-45
2022/09/19 00:48:41;;;;;;;2.85;1.02;;;19.00;55.00;;;;;;4090433;28;20051;-50
2022/09/19 00:51:04;;;;;;;4.40;1.15;;;19.00;54.70;;;;;;4091872;28;20032;-55
2022/09/19 00:53:30;;;;;;;2.63;1.00;;;19.10;55.20;;;;;;4092349;28;20134;-45
2022/09/19 00:55:55;;;;;;;9.27;1.00;;;19.10;55.30;;;;;;4063811;28;20487;-50
2022/09/19 00:58:35;;;;;;;3.55;0.90;;;19.20;55.20;;;;;;4078340;28;20122;-47
2022/09/19 01:00:59;;;;;;;4.07;0.65;;;19.30;55.20;;;;;;4082380;28;20066;-48
2022/09/19 01:03:24;;;;;;;3.88;0.70;;;19.30;55.30;;;;;;4087763;28;20472;-48
2022/09/19 01:06:16;;;;;;;6.07;1.10;;;19.40;55.00;;;;;;4089487;28;20114;-48
2022/09/19 01:08:55;;;;;;;0.35;0.30;;;19.40;54.70;;;;;;4085305;28;20039;-45
2022/09/19 01:11:49;;;;;;;1.85;0.60;;;19.50;54.70;;;;;;4087600;28;20065;-48
2022/09/19 01:14:25;;;;;;;1.55;0.60;;;19.60;54.50;;;;;;4083123;28;20527;-47
2022/09/19 01:16:51;;;;;;;1.45;0.40;;;19.60;54.40;;;;;;4083427;28;20745;-47
2022/09/19 01:19:35;;;;;;;0.47;0.40;;;19.60;54.30;;;;;;4084898;28;20043;-46
2022/09/19 01:22:08;;;;;;;0.40;0.40;;;19.70;54.20;;;;;;4084646;28;20499;-53
2022/09/19 01:24:49;;;;;;;0.70;0.32;;;19.70;54.20;;;;;;4078050;28;20055;-50
2022/09/19 01:27:25;;;;;;;0.38;0.38;;;19.80;54.30;;;;;;4081422;28;20052;-47
2022/09/19 01:30:09;;;;;;;0.40;0.30;;;19.80;54.40;;;;;;4082847;28;20046;-47
2022/09/19 01:33:10;;;;;;;1.00;0.50;;;19.80;54.30;;;;;;4083668;28;20130;-46
2022/09/19 01:35:39;;;;;;;3.10;0.68;;;19.80;54.30;;;;;;4084593;28;20142;-49
2022/09/19 01:38:14;;;;;;;4.95;0.65;;;19.90;53.70;;;;;;4089526;28;20042;-48
2022/09/19 01:40:37;;;;;;;0.52;0.40;;;19.90;53.70;;;;;;4087519;28;20431;-46
2022/09/19 01:43:00;;;;;;;1.65;0.38;;;19.90;54.20;;;;;;4087787;28;20393;-48
2022/09/19 01:45:42;;;;;;;0.65;0.38;;;20.00;53.70;;;;;;4090397;28;20043;-46
2022/09/19 01:48:19;;;;;;;0.32;0.30;;;20.00;53.50;;;;;;4093651;28;20065;-47
2022/09/19 01:51:17;;;;;;;0.52;0.40;;;20.00;53.50;;;;;;4086628;28;20043;-49
2022/09/19 01:54:03;;;;;;;0.52;0.22;;;20.10;53.40;;;;;;4087532;28;20038;-45
2022/09/19 01:56:52;;;;;;;2.17;0.43;;;20.10;53.20;;;;;;4089494;28;20497;-48
2022/09/19 01:59:33;;;;;;;0.60;0.35;;;20.10;53.20;;;;;;4093756;28;20039;-47
2022/09/19 02:02:27;;;;;;;0.40;0.40;;;20.10;53.20;;;;;;4091712;28;20117;-45
2022/09/19 02:05:31;;;;;;;0.50;0.40;;;20.20;53.20;;;;;;4090367;28;20121;-52
2022/09/19 02:08:21;;;;;;;0.45;0.45;;;20.20;53.20;;;;;;4085940;28;20101;-44
2022/09/19 02:10:54;;;;;;;0.35;0.30;;;20.30;53.10;;;;;;4065113;28;20047;-48
2022/09/19 02:13:22;;;;;;;0.60;0.30;;;20.30;52.90;;;;;;4091780;28;20070;-45
2022/09/19 02:15:51;;;;;;;0.30;0.20;;;20.30;52.90;;;;;;4084525;28;20690;-47
2022/09/19 02:18:37;;;;;;;1.67;0.35;;;20.30;53.00;;;;;;4090707;28;20039;-46
2022/09/19 02:21:06;;;;;;;0.30;0.30;;;20.30;53.00;;;;;;4091623;28;20121;-49
2022/09/19 02:23:33;;;;;;;1.70;0.55;;;20.40;53.20;;;;;;4088443;28;20038;-47
2022/09/19 02:25:59;;;;;;;0.30;0.30;;;20.40;52.90;;;;;;4087114;28;20031;-47
2022/09/19 02:28:38;;;;;;;0.32;0.32;;;20.40;52.90;;;;;;4092812;28;20047;-46
2022/09/19 02:31:01;;;;;;;0.40;0.40;;;20.40;52.90;;;;;;4093075;28;20403;-48
2022/09/19 02:33:24;;;;;;;0.32;0.30;;;20.40;53.00;;;;;;4091584;28;20206;-47
2022/09/19 02:35:52;;;;;;;0.20;0.20;;;20.40;52.90;;;;;;4090532;28;20122;-48
2022/09/19 02:38:34;;;;;;;0.85;0.43;;;20.50;52.90;;;;;;4082152;28;20043;-50
2022/09/19 02:41:22;;;;;;;0.20;0.20;;;20.50;52.80;;;;;;4084091;28;20039;-47
2022/09/19 02:44:08;;;;;;;0.65;0.40;;;20.50;52.70;;;;;;4085883;28;20388;-50
2022/09/19 02:46:38;;;;;;;0.38;0.38;;;20.60;52.70;;;;;;4084746;28;20051;-46
2022/09/19 02:49:19;;;;;;;0.47;0.45;;;20.60;52.60;;;;;;4086209;28;20050;-50
2022/09/19 02:51:56;;;;;;;0.45;0.30;;;20.60;52.60;;;;;;4085805;28;20039;-49
2022/09/19 02:54:28;;;;;;;0.73;0.40;;;20.60;52.60;;;;;;4087506;28;20412;-52
2022/09/19 02:56:53;;;;;;;0.17;0.17;;;20.60;52.60;;;;;;4091508;28;20079;-52
2022/09/19 02:59:21;;;;;;;1.10;0.50;;;20.70;52.00;;;;;;4093026;28;20051;-50
2022/09/19 03:01:48;;;;;;;0.50;0.35;;;20.70;51.10;;;;;;4090636;28;20043;-52
2022/09/19 03:04:15;;;;;;;1.63;0.73;;;20.60;50.80;;;;;;4087023;28;20416;-54
2022/09/19 03:06:48;;;;;;;6.18;1.20;;;20.60;47.40;;;;;;4090156;28;20154;-47
2022/09/19 03:09:12;;;;;;;1.60;0.68;;;20.60;46.60;;;;;;4085508;28;20066;-45
2022/09/19 03:11:38;;;;;;;3.22;0.80;;;20.70;46.40;;;;;;4086418;28;20054;-52
2022/09/19 03:14:01;;;;;;;3.17;1.20;;;20.70;44.50;;;;;;4085488;28;20118;-49
2022/09/19 03:16:34;;;;;;;2.35;0.90;;;20.70;44.50;;;;;;4089938;28;20047;-48
2022/09/19 03:18:58;;;;;;;1.55;0.70;;;20.70;42.40;;;;;;4087959;28;20518;-46
2022/09/19 03:21:23;;;;;;;2.87;0.97;;;20.70;43.20;;;;;;4090141;28;20075;-46
2022/09/19 03:23:49;;;;;;;4.18;0.82;;;20.70;44.00;;;;;;4092336;28;20286;-46
2022/09/19 03:26:14;;;;;;;1.40;0.77;;;20.70;44.80;;;;;;4086900;28;20047;-49
2022/09/19 03:28:37;;;;;;;1.30;0.73;;;20.80;45.20;;;;;;4083441;28;20102;-47
2022/09/19 03:31:00;;;;;;;1.27;0.73;;;20.80;44.70;;;;;;4083220;28;20503;-46
2022/09/19 03:33:23;;;;;;;2.40;0.98;;;20.90;44.10;;;;;;4078610;28;20190;-51
2022/09/19 03:35:52;;;;;;;5.47;1.10;;;20.90;44.00;;;;;;4083371;28;20043;-49
2022/09/19 03:38:15;;;;;;;1.38;0.80;;;21.00;44.30;;;;;;4084905;28;20078;-46
2022/09/19 03:40:37;;;;;;;3.50;0.82;;;21.00;44.80;;;;;;4085244;28;20058;-48
2022/09/19 03:43:00;;;;;;;1.15;0.82;;;21.10;45.00;;;;;;4089116;28;20059;-46
2022/09/19 03:45:23;;;;;;;1.60;0.82;;;21.20;45.30;;;;;;4083679;28;20476;-49
2022/09/19 03:47:46;;;;;;;0.63;0.52;;;21.20;45.30;;;;;;4089113;28;20134;-53
2022/09/19 03:50:09;;;;;;;1.15;0.55;;;21.30;44.80;;;;;;4082809;28;20443;-46
2022/09/19 03:52:33;;;;;;;1.30;0.60;;;21.40;45.20;;;;;;4082246;28;20035;-49
2022/09/19 03:54:56;;;;;;;1.20;0.70;;;21.50;44.10;;;;;;4092082;28;20039;-49
2022/09/19 03:57:19;;;;;;;2.42;1.08;;;21.50;44.80;;;;;;4083828;28;20042;-49
2022/09/19 03:59:42;;;;;;;9.63;1.35;;;21.60;45.00;;;;;;4093569;28;20038;-55
2022/09/19 04:02:06;;;;;;;3.70;1.30;;;21.60;45.80;;;;;;4091483;28;20043;-49
2022/09/19 04:04:28;;;;;;;3.27;0.80;;;21.70;44.30;;;;;;4091146;28;20612;-45
2022/09/19 04:06:51;;;;;;;3.65;1.05;;;21.80;45.00;;;;;;4094162;28;20444;-47
2022/09/19 04:09:14;;;;;;;1.90;0.80;;;21.90;44.50;;;;;;4076847;28;20040;-52
2022/09/19 04:11:41;;;;;;;1.73;0.70;;;22.00;44.70;;;;;;4088508;28;20110;-44
2022/09/19 04:14:04;;;;;;;2.67;0.98;;;22.10;44.40;;;;;;4088803;28;20031;-46
2022/09/19 04:16:26;;;;;;;2.13;0.90;;;22.20;44.10;;;;;;4083718;28;20876;-49
2022/09/19 04:18:50;;;;;;;2.05;0.88;;;22.20;43.10;;;;;;4083139;28;20035;-45
2022/09/19 04:21:13;;;;;;;1.50;0.57;;;22.40;43.50;;;;;;4083749;28;20043;-46
2022/09/19 04:23:35;;;;;;;3.67;0.88;;;22.40;43.30;;;;;;4083787;28;20470;-50
2022/09/19 04:26:00;;;;;;;1.20;0.63;;;22.50;43.50;;;;;;4081270;28;20035;-50
2022/09/19 04:28:23;;;;;;;2.45;0.70;;;22.60;43.40;;;;;;4084817;28;20050;-46
2022/09/19 04:30:46;;;;;;;2.05;0.60;;;22.70;43.70;;;;;;4081394;28;20043;-44
2022/09/19 04:33:10;;;;;;;1.10;0.43;;;22.80;43.20;;;;;;4086924;28;20416;-49
2022/09/19 04:35:35;;;;;;;1.45;0.82;;;22.90;43.20;;;;;;4079569;28;20040;-48
2022/09/19 04:37:58;;;;;;;0.82;0.50;;;23.00;42.50;;;;;;4086598;28;20043;-48
2022/09/19 04:40:21;;;;;;;1.58;0.70;;;23.10;42.90;;;;;;4088758;28;20039;-46
2022/09/19 04:42:45;;;;;;;1.48;0.50;;;23.10;42.60;;;;;;4084175;28;20072;-43
2022/09/19 04:45:08;;;;;;;0.82;0.68;;;23.20;42.80;;;;;;4081429;28;20036;-48
2022/09/19 04:47:32;;;;;;;1.30;0.60;;;23.30;43.20;;;;;;4086178;28;20047;-45
2022/09/19 04:49:56;;;;;;;1.23;0.52;;;23.30;43.10;;;;;;4084841;28;20305;-45
2022/09/19 04:52:19;;;;;;;0.85;0.60;;;23.40;42.60;;;;;;4083350;28;20040;-48
2022/09/19 04:54:42;;;;;;;0.90;0.30;;;23.50;42.70;;;;;;4085902;28;20126;-49
2022/09/19 04:57:07;;;;;;;1.17;0.60;;;23.60;42.60;;;;;;4087729;28;20181;-48
2022/09/19 04:59:29;;;;;;;0.90;0.50;;;23.70;43.10;;;;;;4084054;28;20344;-52
2022/09/19 05:01:52;;;;;;;0.57;0.38;;;23.80;41.60;;;;;;4080285;28;20046;-49
2022/09/19 05:04:16;;;;;;;0.70;0.40;;;23.80;41.10;;;;;;4079292;28;20052;-44
2022/09/19 05:06:39;;;;;;;1.30;0.55;;;23.90;42.20;;;;;;4082453;28;20051;-46
2022/09/19 05:09:02;;;;;;;0.65;0.40;;;24.00;42.50;;;;;;4092392;28;20058;-45
2022/09/19 05:11:27;;;;;;;1.60;0.57;;;24.00;42.20;;;;;;4078542;28;20039;-47
2022/09/19 05:13:51;;;;;;;0.63;0.50;;;24.10;42.50;;;;;;4080266;28;20082;-47
2022/09/19 05:16:13;;;;;;;0.93;0.60;;;24.20;42.40;;;;;;4085697;28;20067;-47
2022/09/19 05:18:37;;;;;;;2.67;0.50;;;24.20;42.50;;;;;;4094250;28;20571;-46
2022/09/19 05:21:07;;;;;;;1.88;0.50;;;24.30;41.60;;;;;;4094565;28;20028;-52
2022/09/19 05:23:30;;;;;;;5.45;1.00;;;24.20;41.90;;;;;;4097837;28;20412;-42
2022/09/19 05:25:53;;;;;;;1.65;0.80;;;24.20;41.40;;;;;;4094267;28;20182;-42
2022/09/19 05:28:16;;;;;;;0.82;0.60;;;24.20;41.80;;;;;;4093308;28;20051;-43
2022/09/19 05:30:46;;;;;;;5.18;0.57;;;24.20;41.70;;;;;;4096263;28;20609;-46
2022/09/19 05:33:08;;;;;;;0.73;0.55;;;24.30;41.10;;;;;;4091659;28;20031;-46
2022/09/19 05:35:32;;;;;;;0.90;0.45;;;24.30;41.20;;;;;;4088390;28;20171;-46
2022/09/19 05:37:56;;;;;;;1.40;0.55;;;24.40;40.60;;;;;;4088611;28;20035;-48
2022/09/19 05:40:19;;;;;;;1.35;0.60;;;24.40;41.00;;;;;;4084819;28;20488;-43
2022/09/19 05:42:43;;;;;;;0.90;0.50;;;24.40;39.50;;;;;;4089557;28;20537;-44
2022/09/19 05:45:07;;;;;;;1.25;0.50;;;24.50;40.00;;;;;;4092447;28;20266;-43
2022/09/19 05:47:30;;;;;;;4.78;1.17;;;24.50;41.00;;;;;;4087026;28;20055;-44
2022/09/19 05:49:52;;;;;;;1.10;0.53;;;24.60;41.10;;;;;;4092405;28;20493;-44
2022/09/19 05:54:58;;;;;;;0.55;0.40;;;24.60;42.00;;;;;;4087502;28;20319;-42
2022/09/19 05:57:21;;;;;;;0.55;0.32;;;24.60;42.00;;;;;;4088854;28;20131;-42
2022/09/19 05:59:43;;;;;;;0.65;0.30;;;24.70;42.50;;;;;;4089887;28;20535;-45
2022/09/19 06:02:10;;;;;;;1.15;0.57;;;24.60;42.30;;;;;;4087657;28;20423;-43
2022/09/19 06:04:33;;;;;;;0.68;0.43;;;24.60;42.50;;;;;;4089022;28;20535;-43
2022/09/19 06:06:56;;;;;;;0.77;0.32;;;24.70;42.90;;;;;;4094982;28;20134;-46
2022/09/19 06:09:18;;;;;;;2.63;0.65;;;24.70;43.00;;;;;;4085484;28;20044;-43
2022/09/19 06:11:41;;;;;;;1.35;0.47;;;24.70;43.30;;;;;;4085387;28;20487;-44
2022/09/19 06:14:18;;;;;;;0.63;0.50;;;24.70;43.40;;;;;;4084673;28;20065;-44
2022/09/19 06:16:44;;;;;;;0.35;0.32;;;24.70;43.10;;;;;;4086851;28;20039;-44
2022/09/19 06:19:08;;;;;;;0.38;0.35;;;24.80;43.30;;;;;;4086336;28;20114;-42
2022/09/19 06:21:32;;;;;;;1.38;0.43;;;24.80;43.50;;;;;;4091728;28;20126;-47
2022/09/19 06:23:55;;;;;;;1.17;0.50;;;24.80;43.60;;;;;;4080063;28;20114;-44
2022/09/19 06:26:18;;;;;;;0.77;0.32;;;24.80;43.40;;;;;;4084744;28;20041;-45
2022/09/19 06:28:41;;;;;;;1.42;0.60;;;24.80;43.50;;;;;;4084776;28;20044;-43
2022/09/19 06:31:05;;;;;;;0.55;0.47;;;24.70;43.50;;;;;;4087241;28;20043;-45
2022/09/19 06:33:28;;;;;;;0.60;0.40;;;24.70;44.00;;;;;;4090116;28;20050;-44
2022/09/19 06:35:52;;;;;;;2.03;0.50;;;24.70;44.10;;;;;;4086488;28;20047;-47
2022/09/19 06:38:14;;;;;;;;;;;24.70;43.90;;;;;;4092131;28;20077;-43
2022/09/19 06:40:38;;;;;;;3.33;0.50;;;24.70;44.20;;;;;;4090355;28;20314;-46
2022/09/19 06:43:03;;;;;;;3.50;0.63;;;24.70;43.70;;;;;;4094559;28;20059;-44
2022/09/19 06:45:26;;;;;;;0.50;0.40;;;24.70;43.50;;;;;;4091671;28;20035;-45
2022/09/19 06:47:48;;;;;;;1.42;0.52;;;24.60;43.40;;;;;;4091292;28;20057;-43
2022/09/19 06:50:13;;;;;;;1.83;0.60;;;24.60;43.50;;;;;;4085455;28;20047;-45
2022/09/19 06:52:36;;;;;;;1.20;0.40;;;24.60;43.10;;;;;;4089289;28;20045;-43
2022/09/19 06:54:59;;;;;;;1.63;0.50;;;24.60;43.20;;;;;;4087981;28;20110;-45
2022/09/19 06:57:22;;;;;;;2.20;0.65;;;24.60;43.10;;;;;;4081849;28;20693;-45
2022/09/19 06:59:45;;;;;;;0.52;0.43;;;24.60;43.70;;;;;;4087909;28;20050;-45
2022/09/19 07:02:09;;;;;;;1.27;0.57;;;24.50;43.00;;;;;;4078255;28;20138;-42
2022/09/19 07:04:34;;;;;;;0.60;0.40;;;24.50;43.10;;;;;;4085094;28;20165;-45
2022/09/19 07:06:57;;;;;;;0.55;0.30;;;24.50;43.10;;;;;;4084012;28;20044;-43
2022/09/19 07:09:20;;;;;;;;;;;24.40;43.20;;;;;;4082701;28;20039;-42
2022/09/19 07:11:43;;;;;;;1.20;0.60;;;24.40;43.30;;;;;;4084152;28;20461;-45
2022/09/19 07:14:06;;;;;;;1.80;0.90;;;24.40;43.40;;;;;;4080251;28;20134;-41
2022/09/19 07:16:28;;;;;;;2.80;1.90;;;24.40;43.50;;;;;;4081687;28;20757;-44
2022/09/19 07:18:51;;;;;;;4.28;2.30;;;24.30;43.60;;;;;;4079110;28;20559;-43
2022/09/19 07:21:14;;;;;;;6.40;3.20;;;24.30;43.70;;;;;;4086042;28;20175;-45
2022/09/19 07:23:37;;;;;;;6.13;3.50;;;24.30;43.90;;;;;;4083295;28;20043;-43
2022/09/19 07:26:02;;;;;;;5.95;3.70;;;24.20;44.60;;;;;;4085513;28;20043;-42
2022/09/19 07:28:26;;;;;;;8.15;6.07;;;24.20;44.10;;;;;;4081171;28;20519;-44
2022/09/19 07:30:50;;;;;;;9.07;6.65;;;24.20;44.00;;;;;;4080923;28;20067;-43
2022/09/19 07:33:16;;;;;;;8.60;6.20;;;24.20;44.10;;;;;;4081335;28;20192;-44
2022/09/19 07:35:42;;;;;;;7.95;6.63;;;24.10;44.20;;;;;;4075369;28;20129;-45
2022/09/19 07:38:06;;;;;;;8.88;6.80;;;24.10;44.40;;;;;;4081429;28;20035;-47
2022/09/19 07:40:28;;;;;;;;;;;24.10;44.40;;;;;;4083233;28;20039;-44
2022/09/19 07:42:51;;;;;;;10.13;7.78;;;24.00;44.40;;;;;;4088767;28;19922;-46
2022/09/19 07:45:16;;;;;;;9.25;8.00;;;24.10;44.70;;;;;;4087733;28;20043;-45
2022/09/19 07:47:49;;;;;;;8.57;7.10;;;24.00;44.60;;;;;;4086306;28;20051;-44
2022/09/19 07:50:18;;;;;;;11.73;8.18;;;24.00;44.60;;;;;;4079930;28;20300;-47
2022/09/19 07:52:41;;;;;;;8.50;7.03;;;24.00;44.60;;;;;;4083712;28;20053;-44
2022/09/19 07:55:05;;;;;;;9.77;7.15;;;24.00;44.70;;;;;;4077048;28;20452;-40
2022/09/19 07:57:30;;;;;;;10.30;6.70;;;23.90;44.50;;;;;;4086538;28;20035;-43
2022/09/19 07:59:54;;;;;;;11.18;6.90;;;23.90;44.70;;;;;;4085431;28;20039;-43
2022/09/19 08:02:17;;;;;;;7.70;6.13;;;23.90;44.70;;;;;;4085414;28;20073;-41
2022/09/19 08:04:40;;;;;;;13.60;6.40;;;23.90;44.80;;;;;;4089700;28;20031;-42
2022/09/19 08:07:06;;;;;;;8.90;6.38;;;23.80;45.00;;;;;;4092586;28;20519;-41
2022/09/19 08:09:29;;;;;;;10.52;5.82;;;23.80;44.40;;;;;;4090816;28;20039;-43
2022/09/19 08:11:52;;;;;;;8.63;5.40;;;23.70;44.00;;;;;;4092193;28;20042;-43
2022/09/19 08:14:15;;;;;;;9.35;4.38;;;23.70;43.70;;;;;;4094019;28;20046;-43
2022/09/19 08:16:37;;;;;;;6.07;4.00;;;23.60;43.70;;;;;;4087610;28;20035;-42
2022/09/19 08:19:00;;;;;;;4.80;3.40;;;23.50;43.40;;;;;;4088462;28;20291;-41
2022/09/19 08:21:23;;;;;;;6.30;3.95;;;23.50;43.40;;;;;;4098576;28;20438;-41
2022/09/19 08:23:47;;;;;;;6.50;3.80;;;23.40;43.40;;;;;;4083157;28;20046;-42
2022/09/19 08:26:10;;;;;;;5.60;3.65;;;23.40;43.70;;;;;;4085063;28;20274;-44
2022/09/19 08:28:34;;;;;;;4.05;2.72;;;23.30;43.70;;;;;;4084053;28;20047;-43
2022/09/19 08:31:00;;;;;;;4.45;2.75;;;23.30;43.70;;;;;;4091138;28;20431;-42
2022/09/19 08:33:27;;;;;;;4.22;2.42;;;23.20;43.70;;;;;;4084450;28;20027;-42
2022/09/19 08:35:49;;;;;;;4.10;2.40;;;23.20;43.70;;;;;;4086308;28;20054;-45
2022/09/19 08:38:13;;;;;;;3.83;2.15;;;23.10;43.70;;;;;;4091374;28;20047;-47
2022/09/19 08:40:44;;;;;;;3.70;2.20;;;23.10;43.80;;;;;;4090766;28;20480;-42
2022/09/19 08:43:25;;;;;;;4.68;1.98;;;23.00;43.80;;;;;;4095693;28;20060;-44
2022/09/19 08:46:18;;;;;;;3.58;1.83;;;23.00;43.80;;;;;;4085789;28;20042;-44
2022/09/19 08:49:02;;;;;;;3.40;2.05;;;23.00;44.00;;;;;;4087537;28;20530;-41
2022/09/19 08:51:29;;;;;;;2.70;1.90;;;22.90;44.20;;;;;;4088015;28;20122;-42
2022/09/19 08:54:02;;;;;;;3.28;1.80;;;22.90;44.10;;;;;;4081089;28;20393;-43
2022/09/19 08:56:25;;;;;;;3.78;1.80;;;22.80;44.10;;;;;;4083039;28;20110;-42
2022/09/19 08:59:03;;;;;;;3.88;1.95;;;22.80;44.10;;;;;;4088141;28;20049;-41
2022/09/19 09:01:29;;;;;;;3.92;1.90;;;22.80;44.30;;;;;;4088468;28;20039;-42
2022/09/19 09:04:31;;;;;;;2.10;1.40;;;22.70;44.20;;;;;;4082402;28;20246;-39
2022/09/19 09:07:23;;;;;;;3.30;1.33;;;22.70;44.50;;;;;;4088231;28;20052;-43
2022/09/19 09:10:13;;;;;;;2.75;1.45;;;22.60;44.50;;;;;;4072780;28;20381;-41
2022/09/19 09:12:53;;;;;;;3.67;1.42;;;22.60;44.50;;;;;;4089129;28;20042;-44
2022/09/19 09:15:32;;;;;;;3.92;1.70;;;22.60;44.70;;;;;;4085300;28;20473;-42
2022/09/19 09:18:20;;;;;;;1.90;1.20;;;22.60;44.70;;;;;;4088873;28;20482;-45
2022/09/19 09:21:15;;;;;;;2.30;1.30;;;22.50;44.70;;;;;;4098695;28;20039;-42
2022/09/19 09:23:45;;;;;;;2.10;1.10;;;22.50;44.80;;;;;;4089341;28;20530;-42
2022/09/19 09:26:23;;;;;;;3.13;1.35;;;22.50;44.80;;;;;;4086839;28;20106;-44
2022/09/19 09:28:54;;;;;;;2.40;1.38;;;22.40;45.10;;;;;;4086023;28;20069;-42
2022/09/19 09:31:37;;;;;;;1.60;1.05;;;22.40;45.00;;;;;;4086420;28;20513;-42
2022/09/19 09:34:28;;;;;;;2.10;1.10;;;22.40;45.10;;;;;;4090503;28;20051;-41
2022/09/19 09:37:04;;;;;;;2.25;1.27;;;22.30;45.10;;;;;;4097859;28;20133;-44
2022/09/19 09:39:59;;;;;;;2.30;1.10;;;22.30;45.20;;;;;;4090220;28;20110;-41
2022/09/19 09:42:26;;;;;;;3.40;1.42;;;22.30;45.20;;;;;;4090059;28;20082;-41
2022/09/19 09:45:01;;;;;;;2.47;1.35;;;22.30;45.40;;;;;;4082189;28;20567;-49
2022/09/19 09:47:48;;;;;;;1.88;1.30;;;22.30;45.40;;;;;;4085600;28;20613;-42
2022/09/19 09:50:36;;;;;;;3.28;1.60;;;22.20;45.40;;;;;;4087243;28;20122;-41
2022/09/19 09:53:32;;;;;;;3.53;1.50;;;22.20;45.50;;;;;;4085945;28;20552;-42
2022/09/19 09:56:16;;;;;;;3.33;1.52;;;22.20;45.60;;;;;;4084040;28;20490;-42
2022/09/19 09:58:51;;;;;;;4.30;2.10;;;22.10;45.70;;;;;;4089238;28;20046;-44
2022/09/19 10:04:21;;;;;;;2.03;1.40;;;22.10;45.90;;;;;;4087286;28;20428;-42
2022/09/19 10:07:02;;;;;;;3.50;1.60;;;22.10;46.00;;;;;;4088561;28;20126;-41
2022/09/19 10:09:34;;;;;;;3.10;1.70;;;22.10;46.00;;;;;;4090724;28;20039;-42
2022/09/19 10:12:06;;;;;;;2.13;1.13;;;22.00;46.70;;;;;;4089694;28;20038;-40
2022/09/19 10:14:29;;;;;;;2.95;1.73;;;22.00;46.10;;;;;;4081113;28;20126;-41
2022/09/19 10:16:56;;;;;;;4.43;1.77;;;22.00;46.20;;;;;;4093414;28;20042;-42
2022/09/19 10:19:31;;;;;;;2.78;1.38;;;22.00;46.20;;;;;;4088514;28;20041;-42
2022/09/19 10:21:59;;;;;;;2.13;1.30;;;21.90;46.30;;;;;;4085207;28;20488;-43
2022/09/19 10:24:42;;;;;;;3.33;1.42;;;21.90;46.30;;;;;;4082324;28;20134;-47
2022/09/19 10:27:23;;;;;;;3.40;1.90;;;21.90;46.40;;;;;;4087366;28;20056;-42
2022/09/19 10:29:51;;;;;;;2.88;1.50;;;21.90;46.40;;;;;;4087316;28;20028;-43
2022/09/19 10:32:18;;;;;;;2.22;1.52;;;21.90;46.40;;;;;;4086431;28;20043;-40
2022/09/19 10:34:42;;;;;;;3.10;1.65;;;21.90;46.50;;;;;;4086497;28;20043;-40
2022/09/19 10:37:08;;;;;;;3.00;1.70;;;21.90;46.60;;;;;;4089578;28;20035;-41
2022/09/19 10:39:31;;;;;;;1.77;1.33;;;21.80;46.60;;;;;;4084403;28;20122;-40
2022/09/19 10:41:53;;;;;;;3.47;1.60;;;21.80;46.70;;;;;;4082846;28;20078;-40
2022/09/19 10:44:27;;;;;;;4.55;1.80;;;21.80;46.80;;;;;;4089037;28;20109;-43
2022/09/19 10:46:56;;;;;;;3.15;1.75;;;21.70;46.80;;;;;;4085502;28;20078;-40
2022/09/19 10:49:25;;;;;;;4.10;1.98;;;21.70;46.90;;;;;;4087158;28;20079;-43
2022/09/19 10:51:51;;;;;;;2.53;1.67;;;21.70;46.90;;;;;;4082892;28;20079;-46
2022/09/19 10:54:44;;;;;;;2.30;1.60;;;21.70;47.00;;;;;;4090300;28;20267;-45
2022/09/19 10:57:48;;;;;;;2.00;1.30;;;21.70;47.10;;;;;;4087021;28;20455;-44
2022/09/19 11:00:23;;;;;;;3.03;1.70;;;21.70;47.20;;;;;;4082998;28;20043;-42
2022/09/19 11:02:56;;;;;;;3.08;1.70;;;21.70;47.30;;;;;;4084381;28;20148;-43
2022/09/19 11:05:26;;;;;;;3.03;1.70;;;21.60;47.20;;;;;;4082131;28;20484;-45
2022/09/19 11:07:57;;;;;;;2.33;1.33;;;21.60;47.30;;;;;;4091629;28;20065;-45
2022/09/19 11:10:42;;;;;;;2.47;1.48;;;21.60;47.30;;;;;;4092894;28;20476;-43
2022/09/19 11:13:16;;;;;;;2.15;1.27;;;21.60;47.40;;;;;;4090878;28;20058;-48
2022/09/19 11:16:00;;;;;;;1.73;1.20;;;21.60;47.40;;;;;;4095952;28;20046;-45
2022/09/19 11:18:43;;;;;;;3.73;1.70;;;21.60;47.30;;;;;;4096214;28;20046;-46
2022/09/19 11:21:25;;;;;;;2.50;1.42;;;21.50;47.30;;;;;;4094177;28;20039;-45
2022/09/19 11:24:32;;;;;;;2.13;1.42;;;21.50;47.30;;;;;;4094457;28;20049;-45
2022/09/19 11:27:12;;;;;;;2.22;1.10;;;21.50;47.40;;;;;;4093417;28;20051;-41
2022/09/19 11:29:55;;;;;;;3.58;1.50;;;21.50;47.30;;;;;;4090531;28;20460;-46
2022/09/19 11:32:39;;;;;;;2.75;1.27;;;21.50;47.40;;;;;;4093508;28;20503;-46
2022/09/19 11:35:28;;;;;;;2.08;1.42;;;21.50;47.40;;;;;;4088500;28;20470;-43
2022/09/19 11:38:09;;;;;;;3.58;1.60;;;21.40;47.40;;;;;;4092486;28;20049;-42
2022/09/19 11:40:49;;;;;;;2.45;1.50;;;21.40;47.40;;;;;;4095361;28;20034;-41
2022/09/19 11:43:52;;;;;;;2.65;1.63;;;21.40;47.50;;;;;;4087445;28;20083;-47
2022/09/19 11:46:15;;;;;;;2.78;1.35;;;21.40;47.50;;;;;;4083861;28;20040;-41
2022/09/19 11:48:58;;;;;;;;;;;21.40;47.50;;;;;;4091354;28;20444;-41
2022/09/19 11:51:36;;;;;;;2.58;1.40;;;21.30;47.50;;;;;;4087458;28;19910;-43
2022/09/19 11:54:14;;;;;;;2.47;1.42;;;21.30;47.40;;;;;;4092594;28;20055;-45
2022/09/19 11:56:53;;;;;;;1.80;1.20;;;21.30;48.10;;;;;;4085637;28;20042;-45
2022/09/19 11:59:39;;;;;;;2.78;1.52;;;21.30;47.40;;;;;;4093694;28;20130;-44
2022/09/19 12:02:20;;;;;;;3.38;1.30;;;21.30;47.40;;;;;;4092500;28;20043;-44
2022/09/19 12:05:22;;;;;;;2.42;1.58;;;21.20;47.30;;;;;;4092810;28;20035;-44
2022/09/19 12:08:25;;;;;;;2.22;1.30;;;21.20;47.20;;;;;;4094290;28;20054;-43
2022/09/19 12:11:38;;;;;;;2.35;1.20;;;21.20;47.20;;;;;;4091348;28;20032;-44
2022/09/19 12:14:05;;;;;;;2.25;1.25;;;21.20;47.20;;;;;;4073752;29;20095;-45
2022/09/19 12:16:52;;;;;;;2.10;1.40;;;21.20;47.10;;;;;;4092364;28;20047;-41
2022/09/19 12:19:26;;;;;;;2.35;1.35;;;21.20;47.10;;;;;;4092805;28;20415;-43
2022/09/19 12:21:53;;;;;;;2.13;1.27;;;21.10;47.10;;;;;;4089704;28;20039;-41
2022/09/19 12:24:52;;;;;;;1.42;1.05;;;21.10;47.10;;;;;;4086592;28;20040;-42
2022/09/19 12:27:32;;;;;;;6.50;1.55;;;21.10;47.30;;;;;;4088060;28;20078;-42
2022/09/19 12:30:18;;;;;;;5.90;1.40;;;21.10;47.90;;;;;;4086815;28;20043;-40
2022/09/19 12:33:11;;;;;;;2.67;1.00;;;21.10;48.10;;;;;;4084781;28;20031;-44
2022/09/19 12:35:57;;;;;;;3.35;1.25;;;21.10;48.30;;;;;;4084696;28;20055;-45
2022/09/19 12:38:42;;;;;;;2.80;1.35;;;21.10;48.30;;;;;;4087784;28;20040;-39
2022/09/19 12:41:22;;;;;;;1.50;1.02;;;21.10;48.40;;;;;;4087602;28;20038;-41
2022/09/19 12:44:04;;;;;;;5.03;1.30;;;21.10;48.30;;;;;;4088623;28;20043;-42
2022/09/19 12:46:51;;;;;;;1.67;1.25;;;21.10;48.10;;;;;;4090884;28;20041;-42
2022/09/19 12:49:34;;;;;;;1.70;1.10;;;21.10;47.00;;;;;;4086284;28;20066;-40
2022/09/19 12:52:20;;;;;;;1.45;0.98;;;21.10;46.40;;;;;;4087789;28;20085;-45
2022/09/19 12:55:19;;;;;;;7.82;2.10;;;21.00;46.90;;;;;;4088661;28;20043;-42
2022/09/19 12:58:23;;;;;;;13.55;2.05;;;21.00;48.70;;;;;;4092182;28;20046;-46
2022/09/19 13:00:47;;;;;;;4.55;1.48;;;21.00;49.10;;;;;;4036309;29;20109;-44
2022/09/19 13:03:22;;;;;;;5.20;1.33;;;21.00;49.30;;;;;;4036719;29;20052;-45
2022/09/19 13:05:51;;;;;;;4.38;1.70;;;21.00;49.30;;;;;;4074718;28;20054;-43
2022/09/19 13:08:20;;;;;;;3.13;1.35;;;21.00;49.10;;;;;;4089099;28;20256;-42
2022/09/19 13:11:05;;;;;;;2.15;1.33;;;21.00;49.00;;;;;;4093387;28;20035;-42
2022/09/19 13:13:33;;;;;;;1.38;1.00;;;21.00;48.80;;;;;;4091000;28;20078;-45
2022/09/19 13:16:02;;;;;;;1.98;0.85;;;21.00;48.80;;;;;;4091956;28;20563;-42